Time;durP1;ratioP1;P1;durP2;ratioP2;P2;SDS_P1;SDS_P2;PMS_P1;PMS_P2;Temp;Humidity;BMP_temperature;BMP_pressure;BME280_temperature;BME280_humidity;BME280_pressure;Samples;Min_cycle;Max_cycle;Signal;HPM_P1;HPM_P2
2024/01/29 00:00:35;;;;;;;4.70;3.08;;;;;;;1.36;96.85;102391.84;6247371;23;20008;-95
2024/01/29 00:05:46;;;;;;;5.83;3.40;;;;;;;1.30;97.96;102400.09;6096150;23;20034;-95
2024/01/29 00:08:12;;;;;;;5.25;3.42;;;;;;;1.33;98.72;102413.06;6096109;23;20340;-96
2024/01/29 00:10:55;;;;;;;5.43;3.20;;;;;;;1.28;98.80;102391.47;6096976;23;20448;-95
2024/01/29 00:13:21;;;;;;;5.13;2.90;;;;;;;1.38;98.46;102401.34;6118492;23;20014;-94
2024/01/29 00:15:46;;;;;;;3.97;2.70;;;;;;;1.34;98.04;102394.34;6097190;23;20013;-95
2024/01/29 00:18:31;;;;;;;5.32;3.00;;;;;;;1.45;98.35;102406.78;6095760;23;20002;-95
2024/01/29 00:21:18;;;;;;;5.20;3.05;;;;;;;1.47;97.59;102410.25;6094765;23;20017;-95
2024/01/29 00:23:43;;;;;;;5.75;3.20;;;;;;;1.39;98.62;102402.25;6096164;23;20090;-95
2024/01/29 00:26:25;;;;;;;5.45;2.95;;;;;;;1.31;97.96;102390.75;6095910;23;20072;-95
2024/01/29 00:28:51;;;;;;;5.68;2.92;;;;;;;1.41;97.93;102398.03;6101815;23;20089;-94
2024/01/29 00:34:28;;;;;;;4.57;3.00;;;;;;;1.22;98.29;102389.50;6247417;23;20054;-95
2024/01/29 00:36:53;;;;;;;4.25;2.80;;;;;;;1.30;98.89;102399.22;6247541;23;20075;-95
2024/01/29 00:39:19;;;;;;;6.25;3.15;;;;;;;1.16;99.09;102367.88;6247732;23;20043;-95
2024/01/29 00:45:06;;;;;;;3.90;2.97;;;;;;;1.08;99.45;102372.59;6247066;23;20035;-95
2024/01/29 00:47:51;;;;;;;4.88;2.83;;;;;;;1.10;99.20;102380.38;6247400;23;20338;-95
2024/01/29 00:50:17;;;;;;;4.15;2.70;;;;;;;1.06;98.74;102377.66;6246798;23;20051;-95
2024/01/29 00:53:00;;;;;;;3.88;2.60;;;;;;;1.02;98.89;102374.88;6247947;23;20004;-94
2024/01/29 00:55:25;;;;;;;5.05;2.90;;;;;;;1.10;99.60;102388.03;6247356;23;20008;-96
2024/01/29 00:58:03;;;;;;;4.28;2.78;;;;;;;0.96;99.06;102375.47;6247935;23;20011;-95
2024/01/29 01:00:28;;;;;;;4.65;2.90;;;;;;;0.99;99.44;102375.63;6248772;23;20031;-95
2024/01/29 01:02:54;;;;;;;4.78;2.78;;;;;;;1.10;99.06;102388.03;6248481;23;20413;-95
2024/01/29 01:05:38;;;;;;;4.25;2.70;;;;;;;1.13;98.90;102393.28;6249337;23;20346;-96
2024/01/29 01:08:04;;;;;;;4.15;2.70;;;;;;;1.13;98.56;102398.41;6250253;23;20030;-95
2024/01/29 01:10:29;;;;;;;4.07;2.60;;;;;;;1.10;98.79;102398.28;6250607;23;20004;-95
2024/01/29 01:13:15;;;;;;;3.83;2.60;;;;;;;1.22;98.89;102424.44;6250665;23;20016;-96
2024/01/29 01:15:41;;;;;;;3.50;2.55;;;;;;;1.08;100.00;102400.72;6261764;23;20409;-94
2024/01/29 01:18:24;;;;;;;6.10;3.42;;;;;;;1.06;100.00;102402.38;6262096;23;20027;-96
2024/01/29 01:20:50;;;;;;;6.93;3.50;;;;;;;1.16;100.00;102421.56;6254797;23;20008;-95
2024/01/29 01:23:40;;;;;;;6.40;3.17;;;;;;;1.19;100.00;102426.84;6256123;23;19996;-95
2024/01/29 01:26:05;;;;;;;5.07;3.20;;;;;;;1.18;100.00;102428.50;6258610;23;20031;-95
2024/01/29 01:28:30;;;;;;;5.45;3.13;;;;;;;1.11;100.00;102412.81;6266299;23;20051;-95
2024/01/29 01:31:23;;;;;;;5.15;2.70;;;;;;;1.21;100.00;102422.69;6251841;23;20004;-95
2024/01/29 01:34:09;;;;;;;4.47;2.42;;;;;;;1.23;100.00;102423.66;6250702;23;20008;-95
2024/01/29 01:36:35;;;;;;;5.88;2.95;;;;;;;1.10;100.00;102405.94;6246445;23;20008;-95
2024/01/29 01:39:16;;;;;;;4.00;2.80;;;;;;;1.14;100.00;102418.06;6246033;23;20019;-95
2024/01/29 01:42:08;;;;;;;3.55;2.63;;;;;;;1.19;100.00;102426.84;6246260;23;20032;-96
2024/01/29 01:44:34;;;;;;;3.60;2.50;;;;;;;1.19;100.00;102429.41;6246249;23;20042;-95
2024/01/29 01:46:59;;;;;;;4.93;2.88;;;;;;;1.16;100.00;102427.59;6245823;23;20012;-95
2024/01/29 01:49:43;;;;;;;3.42;2.50;;;;;;;1.10;100.00;102418.72;6246367;23;20083;-95
2024/01/29 01:52:09;;;;;;;3.65;2.60;;;;;;;0.99;100.00;102402.84;6245635;23;20001;-96
2024/01/29 01:55:00;;;;;;;3.78;2.70;;;;;;;1.08;100.00;102431.41;6245916;23;20063;-95
2024/01/29 01:57:25;;;;;;;4.78;2.85;;;;;;;1.02;100.00;102431.13;6245543;23;20013;-95
2024/01/29 02:00:11;;;;;;;4.40;2.80;;;;;;;1.01;100.00;102427.72;6246485;23;20039;-95
2024/01/29 02:02:36;;;;;;;4.35;2.90;;;;;;;0.87;100.00;102413.34;6246533;23;20321;-95
2024/01/29 02:05:02;;;;;;;4.10;2.80;;;;;;;0.74;100.00;102405.06;6246740;23;20004;-95
2024/01/29 02:07:55;;;;;;;5.15;2.67;;;;;;;0.86;100.00;102427.78;6245811;23;20008;-95
2024/01/29 02:10:20;;;;;;;5.63;3.20;;;;;;;0.70;100.00;102413.38;6246361;23;20037;-95
2024/01/29 02:13:02;;;;;;;4.63;3.00;;;;;;;0.73;100.00;102418.66;6245686;23;20083;-95
2024/01/29 02:15:28;;;;;;;5.07;3.00;;;;;;;0.69;100.00;102416.72;6247512;23;20376;-95
2024/01/29 02:18:15;;;;;;;5.13;3.00;;;;;;;0.79;100.00;102428.31;6249489;23;20004;-95
2024/01/29 02:20:40;;;;;;;4.60;3.00;;;;;;;0.71;100.00;102412.56;6265820;23;20079;-95
2024/01/29 02:23:06;;;;;;;7.40;3.00;;;;;;;0.74;100.00;102430.63;6248563;23;20003;-95
2024/01/29 02:25:39;;;;;;;4.85;3.00;;;;;;;0.68;100.00;102412.41;6248356;23;20000;-95
2024/01/29 02:28:04;;;;;;;3.67;2.58;;;;;;;0.80;100.00;102437.72;6248255;23;19996;-95
2024/01/29 02:30:45;;;;;;;3.30;2.60;;;;;;;0.68;100.00;102403.88;6247374;23;20008;-95
2024/01/29 02:33:10;;;;;;;4.38;2.90;;;;;;;0.81;100.00;102420.69;6247844;23;20004;-95
2024/01/29 02:35:57;;;;;;;3.63;2.58;;;;;;;0.70;100.00;102405.69;6248494;23;20008;-95
2024/01/29 02:38:23;;;;;;;3.05;2.50;;;;;;;0.70;100.00;102403.16;6248206;23;20011;-95
2024/01/29 02:40:48;;;;;;;3.47;2.50;;;;;;;0.80;100.00;102414.72;6248789;23;20333;-95
2024/01/29 02:45:58;;;;;;;3.67;2.55;;;;;;;0.70;100.00;102415.06;6247974;23;20511;-96
2024/01/29 02:48:23;;;;;;;4.60;2.47;;;;;;;0.68;100.00;102409.00;6247978;23;19996;-95
2024/01/29 02:51:10;;;;;;;4.00;2.45;;;;;;;0.80;100.00;102429.16;6248147;23;20063;-96
2024/01/29 02:53:36;;;;;;;4.00;2.55;;;;;;;0.76;100.00;102423.91;6247877;23;20004;-94
2024/01/29 02:56:19;;;;;;;3.40;2.45;;;;;;;0.58;100.00;102402.53;6246103;23;20027;-95
2024/01/29 02:58:45;;;;;;;3.35;2.47;;;;;;;0.68;100.00;102409.00;6248219;23;20016;-95
2024/01/29 03:01:10;;;;;;;4.32;2.60;;;;;;;0.72;100.00;102416.03;6247681;23;20409;-96
2024/01/29 03:04:05;;;;;;;4.63;2.85;;;;;;;0.74;100.00;102419.50;6247774;23;20004;-95
2024/01/29 03:06:52;;;;;;;3.35;2.63;;;;;;;0.75;100.00;102419.59;6248534;23;20011;-95
2024/01/29 03:09:18;;;;;;;3.17;2.50;;;;;;;0.74;100.00;102415.28;6248020;23;20054;-95
2024/01/29 03:12:04;;;;;;;4.82;2.92;;;;;;;0.80;100.00;102418.94;6247970;23;20043;-94
2024/01/29 03:14:30;;;;;;;3.65;2.70;;;;;;;0.82;100.00;102419.91;6247509;23;20032;-95
2024/01/29 03:17:18;;;;;;;4.10;2.63;;;;;;;0.84;100.00;102423.41;6247969;23;20007;-95
2024/01/29 03:20:02;;;;;;;3.58;2.45;;;;;;;0.84;100.00;102424.31;6248229;23;20039;-95
2024/01/29 03:22:28;;;;;;;3.03;2.30;;;;;;;0.76;100.00;102412.81;6257379;22;20023;-94
2024/01/29 03:25:11;;;;;;;3.67;2.45;;;;;;;0.61;100.00;102387.34;6264401;23;20342;-96
2024/01/29 03:27:37;;;;;;;2.67;2.10;;;;;;;0.67;100.00;102408.13;6248014;23;20023;-95
2024/01/29 03:30:24;;;;;;;5.07;2.80;;;;;;;0.75;100.00;102413.59;6247816;23;19996;-95
2024/01/29 03:32:49;;;;;;;5.30;3.00;;;;;;;0.71;100.00;102420.25;6247434;23;20835;-95
2024/01/29 03:35:15;;;;;;;3.70;2.60;;;;;;;0.66;100.00;102424.25;6247862;23;20000;-95
2024/01/29 03:38:03;;;;;;;4.03;2.40;;;;;;;0.68;100.00;102427.75;6248051;23;20008;-96
2024/01/29 03:40:29;;;;;;;2.97;2.40;;;;;;;0.57;100.00;102411.88;6252871;23;20054;-95
2024/01/29 03:43:16;;;;;;;2.38;2.17;;;;;;;0.68;100.00;102430.28;6249648;23;20290;-94
2024/01/29 03:45:41;;;;;;;2.78;2.10;;;;;;;0.63;100.00;102426.66;6249400;23;20004;-95
2024/01/29 03:48:06;;;;;;;3.00;2.28;;;;;;;0.63;100.00;102420.63;6248594;23;20058;-96
2024/01/29 03:50:59;;;;;;;2.63;1.90;;;;;;;0.70;100.00;102436.38;6248223;23;20425;-95
2024/01/29 03:53:25;;;;;;;3.78;2.63;;;;;;;0.67;100.00;102437.91;6247772;23;20008;-95
2024/01/29 03:56:15;;;;;;;3.78;2.63;;;;;;;0.68;100.00;102439.66;6246344;23;20099;-95
2024/01/29 03:58:59;;;;;;;4.32;2.90;;;;;;;0.56;100.00;102429.69;6247852;23;20066;-95
2024/01/29 04:01:28;;;;;;;4.45;2.88;;;;;;;0.63;100.00;102428.31;6247204;23;20015;-95
2024/01/29 04:06:39;;;;;;;3.88;2.70;;;;;;;0.55;100.00;102433.91;6248091;23;20019;-95
2024/01/29 04:09:04;;;;;;;4.53;2.65;;;;;;;0.57;100.00;102437.44;6247436;23;19996;-95
2024/01/29 04:11:29;;;;;;;5.25;3.15;;;;;;;0.55;100.00;102433.06;6246804;23;20004;-95
2024/01/29 04:14:11;;;;;;;5.50;3.17;;;;;;;0.44;100.00;102423.16;6247011;23;20019;-95
2024/01/29 04:16:36;;;;;;;4.30;3.00;;;;;;;0.47;100.00;102422.44;6247727;23;20007;-95
2024/01/29 04:19:01;;;;;;;4.00;2.70;;;;;;;0.44;100.00;102417.16;6248092;23;19996;-95
2024/01/29 04:21:27;;;;;;;5.03;3.10;;;;;;;0.42;100.00;102421.28;6246585;23;20008;-94
2024/01/29 04:24:11;;;;;;;5.35;3.05;;;;;;;0.51;100.00;102447.31;6247970;23;20004;-95
2024/01/29 04:26:39;;;;;;;6.10;3.65;;;;;;;0.35;100.00;102420.09;6255122;23;20023;-94
2024/01/29 04:29:04;;;;;;;5.20;3.38;;;;;;;0.40;100.00;102422.88;6258274;23;20011;-94
2024/01/29 04:31:52;;;;;;;5.28;3.08;;;;;;;0.52;100.00;102438.84;6193693;23;20004;-94
2024/01/29 04:34:39;;;;;;;5.03;2.90;;;;;;;0.54;100.00;102439.81;6247688;23;20079;-95
2024/01/29 04:37:05;;;;;;;4.68;2.97;;;;;;;0.44;100.00;102428.25;6246724;23;20007;-94
2024/01/29 04:39:30;;;;;;;5.10;3.10;;;;;;;0.41;100.00;102428.09;6247778;23;20009;-94
2024/01/29 04:42:18;;;;;;;4.57;2.97;;;;;;;0.58;100.00;102451.06;6247218;23;20027;-95
2024/01/29 04:44:43;;;;;;;5.70;2.83;;;;;;;0.56;100.00;102445.03;6247686;23;20004;-94
2024/01/29 04:47:34;;;;;;;5.50;3.17;;;;;;;0.57;100.00;102451.88;6247295;23;20372;-94
2024/01/29 04:50:17;;;;;;;4.00;2.60;;;;;;;0.44;100.00;102430.81;6247636;23;20086;-94
2024/01/29 04:52:43;;;;;;;4.43;2.78;;;;;;;0.48;100.00;102436.06;6246985;23;20011;-94
2024/01/29 04:55:08;;;;;;;5.07;2.78;;;;;;;0.52;100.00;102445.66;6246745;23;20020;-94
2024/01/29 04:57:52;;;;;;;4.75;3.03;;;;;;;0.40;100.00;102425.44;6247548;23;20000;-94
2024/01/29 05:00:18;;;;;;;6.93;3.15;;;;;;;0.49;100.00;102442.94;6246843;23;20015;-94
2024/01/29 05:02:43;;;;;;;5.60;3.05;;;;;;;0.49;100.00;102441.28;6247320;23;20079;-93
2024/01/29 05:05:24;;;;;;;3.92;2.75;;;;;;;0.39;100.00;102432.25;6246796;23;20001;-95
2024/01/29 05:07:51;;;;;;;4.25;2.70;;;;;;;0.39;100.00;102432.25;6247364;23;20034;-95
2024/01/29 05:10:16;;;;;;;4.13;2.90;;;;;;;0.51;100.00;102452.44;6247503;23;20325;-95
2024/01/29 05:13:04;;;;;;;4.50;2.92;;;;;;;0.50;100.00;102448.16;6247399;23;20004;-95
2024/01/29 05:15:29;;;;;;;3.97;2.58;;;;;;;0.38;100.00;102430.47;6247944;23;20031;-94
2024/01/29 05:17:54;;;;;;;3.45;2.50;;;;;;;0.35;100.00;102430.31;6248556;22;20031;-95
2024/01/29 05:20:43;;;;;;;4.07;2.70;;;;;;;0.48;100.00;102451.41;6248497;23;20008;-95
2024/01/29 05:23:08;;;;;;;4.18;2.80;;;;;;;0.46;100.00;102453.88;6249092;23;20456;-94
2024/01/29 05:25:55;;;;;;;4.85;3.20;;;;;;;0.41;100.00;102453.63;6248677;23;20004;-94
2024/01/29 05:28:20;;;;;;;5.30;3.15;;;;;;;0.33;100.00;102442.16;6250226;23;20451;-94
2024/01/29 05:30:45;;;;;;;4.57;2.90;;;;;;;0.34;100.00;102440.47;6250740;23;20004;-90
2024/01/29 05:33:33;;;;;;;6.07;3.30;;;;;;;0.41;100.00;102443.41;6248524;23;20075;-91
2024/01/29 05:35:59;;;;;;;3.85;2.58;;;;;;;0.30;100.00;102429.22;6250649;23;20011;-93
2024/01/29 05:38:43;;;;;;;3.28;2.28;;;;;;;0.41;100.00;102452.75;6251057;23;20004;-96
2024/01/29 05:41:09;;;;;;;4.55;2.70;;;;;;;0.41;100.00;102445.09;6255747;23;20035;-95
2024/01/29 05:43:34;;;;;;;4.07;2.50;;;;;;;0.39;100.00;102447.56;6260976;23;19997;-94
2024/01/29 05:46:53;;;;;;;3.80;2.47;;;;;;;0.42;100.00;102445.19;6257501;23;20008;-95
2024/01/29 05:49:18;;;;;;;3.90;2.70;;;;;;;0.33;100.00;102437.03;6252444;23;20004;-95
2024/01/29 05:51:44;;;;;;;4.20;2.60;;;;;;;0.35;100.00;102443.09;6251518;23;20011;-94
2024/01/29 05:54:28;;;;;;;3.70;2.70;;;;;;;0.29;100.00;102432.56;6247909;23;20051;-95
2024/01/29 05:56:53;;;;;;;5.32;2.92;;;;;;;0.36;100.00;102447.41;6248376;23;20031;-95
2024/01/29 05:59:48;;;;;;;4.85;3.10;;;;;;;0.47;100.00;102463.31;6248113;23;20008;-95
2024/01/29 06:02:31;;;;;;;4.65;2.95;;;;;;;0.31;100.00;102438.63;6248509;23;20012;-94
2024/01/29 06:04:56;;;;;;;4.45;2.50;;;;;;;0.38;100.00;102453.47;6248488;23;20333;-95
2024/01/29 06:07:22;;;;;;;3.20;2.50;;;;;;;0.47;100.00;102463.31;6247918;23;20053;-94
2024/01/29 06:10:02;;;;;;;3.75;2.55;;;;;;;0.52;100.00;102471.19;6235538;23;20502;-95
2024/01/29 06:12:28;;;;;;;4.45;2.60;;;;;;;0.53;100.00;102462.75;6247878;23;20019;-94
2024/01/29 06:14:53;;;;;;;5.55;2.95;;;;;;;0.56;100.00;102466.34;6248429;23;20008;-95
2024/01/29 06:17:36;;;;;;;6.25;3.30;;;;;;;0.48;100.00;102443.72;6248077;23;20046;-95
2024/01/29 06:20:03;;;;;;;4.38;2.83;;;;;;;0.52;100.00;102458.44;6248329;23;20397;-95
2024/01/29 06:23:20;;;;;;;5.35;2.92;;;;;;;0.65;100.00;102473.59;6247731;23;20000;-96
2024/01/29 06:25:45;;;;;;;4.70;2.60;;;;;;;0.53;100.00;102461.06;6249241;22;20024;-95
2024/01/29 06:28:26;;;;;;;3.90;2.50;;;;;;;0.52;100.00;102445.66;6246792;23;20008;-95
2024/01/29 06:30:51;;;;;;;3.70;2.60;;;;;;;0.62;100.00;102468.31;6247321;23;20008;-95
2024/01/29 06:33:39;;;;;;;4.18;2.58;;;;;;;0.70;100.00;102479.81;6247386;23;20440;-95
2024/01/29 06:36:05;;;;;;;4.90;2.80;;;;;;;0.57;100.00;102462.09;6247222;23;20005;-95
2024/01/29 06:38:53;;;;;;;4.80;2.77;;;;;;;0.68;100.00;102486.50;6247339;23;20012;-96
2024/01/29 06:41:39;;;;;;;4.97;2.60;;;;;;;0.62;100.00;102473.44;6247648;23;20235;-95
2024/01/29 06:44:05;;;;;;;4.13;2.67;;;;;;;0.57;100.00;102470.66;6247872;23;20008;-95
2024/01/29 06:46:30;;;;;;;4.30;2.70;;;;;;;0.68;100.00;102485.66;6248073;23;20046;-95
2024/01/29 06:48:55;;;;;;;3.35;2.38;;;;;;;0.67;100.00;102489.00;6246546;23;20016;-95
2024/01/29 06:51:42;;;;;;;4.63;2.63;;;;;;;0.69;100.00;102489.97;6247486;23;20015;-96
2024/01/29 06:54:07;;;;;;;4.43;2.90;;;;;;;0.52;100.00;102459.28;6221410;23;20073;-95
2024/01/29 06:56:53;;;;;;;3.75;2.50;;;;;;;0.56;100.00;102461.22;6247652;23;20190;-94
2024/01/29 06:59:18;;;;;;;3.88;2.60;;;;;;;0.53;100.00;102465.28;6248006;23;20000;-95
2024/01/29 07:02:06;;;;;;;3.78;2.50;;;;;;;0.68;100.00;102501.00;6247731;23;20027;-95
2024/01/29 07:04:31;;;;;;;3.67;2.80;;;;;;;0.52;100.00;102472.06;6252451;23;20010;-95
2024/01/29 07:06:56;;;;;;;5.18;3.03;;;;;;;0.57;100.00;102485.09;6248052;23;19999;-93
2024/01/29 07:09:40;;;;;;;7.40;3.60;;;;;;;0.54;100.00;102484.94;6247010;23;20007;-93
2024/01/29 07:12:06;;;;;;;4.60;3.10;;;;;;;0.60;100.00;102496.38;6246492;23;20011;-93
2024/01/29 07:14:31;;;;;;;4.47;3.00;;;;;;;0.54;100.00;102490.91;6247175;23;20008;-93
2024/01/29 07:17:15;;;;;;;3.90;2.72;;;;;;;0.56;100.00;102488.47;6245907;23;20004;-92
2024/01/29 07:19:41;;;;;;;4.55;2.83;;;;;;;0.59;100.00;102494.59;6247559;23;20047;-93
2024/01/29 07:22:08;;;;;;;5.30;2.70;;;;;;;0.60;100.00;102492.91;6247330;23;20357;-93
2024/01/29 07:24:36;;;;;;;4.57;2.95;;;;;;;0.71;100.00;102521.59;6246354;23;20023;-93
2024/01/29 07:27:20;;;;;;;3.83;2.53;;;;;;;0.64;100.00;102501.63;6246722;23;20425;-92
2024/01/29 07:29:45;;;;;;;4.40;2.75;;;;;;;0.70;100.00;102510.47;6247154;23;20428;-93
2024/01/29 07:32:10;;;;;;;3.40;2.50;;;;;;;0.80;100.00;102528.84;6246468;23;20023;-93
2024/01/29 07:34:36;;;;;;;3.50;2.40;;;;;;;0.80;100.00;102519.53;6246934;23;20015;-93
2024/01/29 07:37:20;;;;;;;3.63;2.35;;;;;;;0.87;100.00;102528.38;6247107;23;20006;-93
2024/01/29 07:39:45;;;;;;;3.95;2.60;;;;;;;0.79;100.00;102507.53;6245889;23;20015;-93
2024/01/29 07:42:10;;;;;;;3.80;2.50;;;;;;;0.86;100.00;102508.72;6247286;23;20429;-92
2024/01/29 07:44:36;;;;;;;2.95;2.30;;;;;;;1.02;100.00;102531.72;6246834;23;20004;-93
2024/01/29 07:47:20;;;;;;;4.30;2.60;;;;;;;1.04;100.00;102529.25;6246054;23;20050;-92
2024/01/29 07:49:45;;;;;;;3.42;2.40;;;;;;;1.06;100.00;102530.22;6247200;23;20008;-95
2024/01/29 07:52:11;;;;;;;2.72;2.30;;;;;;;1.16;100.00;102537.56;6246367;23;20401;-95
2024/01/29 07:54:59;;;;;;;3.10;2.15;;;;;;;1.29;100.00;102540.72;6247016;23;20393;-94
2024/01/29 07:57:25;;;;;;;2.72;2.20;;;;;;;1.29;100.00;102535.63;6246868;23;20008;-96
2024/01/29 08:00:07;;;;;;;2.45;2.10;;;;;;;1.39;100.00;102537.84;6246165;23;20446;-95
2024/01/29 08:02:33;;;;;;;3.45;2.17;;;;;;;1.44;100.00;102532.94;6244602;23;20055;-95
2024/01/29 08:04:58;;;;;;;2.60;2.03;;;;;;;1.45;100.00;102527.03;6247792;23;20004;-96
2024/01/29 08:07:49;;;;;;;2.72;2.10;;;;;;;1.55;100.00;102526.66;6245033;23;20008;-88
2024/01/29 08:10:14;;;;;;;2.80;2.10;;;;;;;1.66;100.00;102535.75;6246372;23;20065;-89
2024/01/29 08:12:40;;;;;;;2.53;2.17;;;;;;;1.75;100.00;102539.56;6245969;23;20095;-90
2024/01/29 08:15:05;;;;;;;1.90;1.80;;;;;;;1.80;100.00;102538.09;6245263;23;20004;-90
2024/01/29 08:17:30;;;;;;;2.60;2.15;;;;;;;1.91;100.00;102541.16;6246391;23;20022;-89
2024/01/29 08:19:56;;;;;;;3.75;2.00;;;;;;;1.90;100.00;102530.06;6245796;23;20079;-89
2024/01/29 08:22:21;;;;;;;2.10;1.90;;;;;;;2.08;100.00;102553.13;6245007;23;20034;-90
2024/01/29 08:24:46;;;;;;;3.60;2.10;;;;;;;2.12;100.00;102547.31;6245598;23;20012;-90
2024/01/29 08:27:12;;;;;;;2.83;2.17;;;;;;;2.26;100.00;102552.19;6245773;23;20050;-90
2024/01/29 08:29:37;;;;;;;2.38;2.00;;;;;;;2.31;100.00;102543.94;6245789;23;20031;-89
2024/01/29 08:32:05;;;;;;;2.05;1.85;;;;;;;2.47;100.00;102547.19;6246094;23;20067;-90
2024/01/29 08:34:30;;;;;;;2.65;1.98;;;;;;;2.60;100.00;102552.06;6245483;23;20007;-90
2024/01/29 08:36:56;;;;;;;2.55;1.90;;;;;;;2.70;100.00;102553.34;6246595;23;20028;-89
2024/01/29 08:39:22;;;;;;;2.00;1.80;;;;;;;2.80;100.00;102549.53;6246213;23;20000;-93
2024/01/29 08:41:47;;;;;;;2.38;1.80;;;;;;;2.77;100.00;102534.00;6245555;23;20011;-92
2024/01/29 08:44:12;;;;;;;2.88;2.00;;;;;;;2.89;100.00;102544.78;6245907;23;20258;-90
2024/01/29 08:46:38;;;;;;;2.20;2.00;;;;;;;3.02;100.00;102551.31;6246772;23;20492;-92
2024/01/29 08:49:08;;;;;;;3.63;2.20;;;;;;;3.12;100.00;102554.28;6245856;23;20027;-88
2024/01/29 08:51:33;;;;;;;4.53;2.13;;;;;;;3.21;100.00;102553.00;6245208;23;20409;-87
2024/01/29 08:53:59;;;;;;;3.20;2.38;;;;;;;3.29;100.00;102548.19;6245167;23;20051;-88
2024/01/29 08:56:24;;;;;;;3.17;2.35;;;;;;;3.35;100.00;102545.00;6245871;23;20445;-91
2024/01/29 08:59:05;;;;;;;3.08;2.20;;;;;;;3.40;100.00;102543.50;6245822;23;20003;-91
2024/01/29 09:01:30;;;;;;;3.58;2.40;;;;;;;3.39;100.00;102534.94;6245302;23;20490;-91
2024/01/29 09:03:55;;;;;;;3.28;2.40;;;;;;;3.53;100.00;102548.34;6246602;23;20151;-91
2024/01/29 09:06:21;;;;;;;3.40;2.42;;;;;;;3.52;100.00;102535.44;6247837;23;20417;-87
2024/01/29 09:08:46;;;;;;;3.80;2.60;;;;;;;3.63;100.00;102543.56;6247539;23;20011;-92
2024/01/29 09:11:33;;;;;;;4.78;2.72;;;;;;;3.71;100.00;102547.34;6245334;23;19999;-89
2024/01/29 09:13:58;;;;;;;3.88;2.53;;;;;;;3.72;100.00;102541.38;6245631;23;20413;-89
2024/01/29 09:16:45;;;;;;;5.30;3.10;;;;;;;3.81;100.00;102549.47;6243485;23;20071;-89
2024/01/29 09:19:13;;;;;;;4.88;2.92;;;;;;;3.79;100.00;102534.78;6246389;22;20030;-89
2024/01/29 09:21:41;;;;;;;4.57;3.00;;;;;;;3.87;100.00;102548.84;6245463;23;20251;-88
2024/01/29 09:24:25;;;;;;;6.50;2.80;;;;;;;3.75;100.00;102531.22;6232136;23;20004;-91
2024/01/29 09:26:50;;;;;;;4.00;2.85;;;;;;;3.81;100.00;102531.50;6246777;23;20027;-94
2024/01/29 09:29:16;;;;;;;5.22;3.00;;;;;;;3.91;100.00;102549.84;6246915;23;20007;-88
2024/01/29 09:32:01;;;;;;;4.03;2.70;;;;;;;3.87;100.00;102536.00;6244557;23;20019;-86
2024/01/29 09:34:29;;;;;;;5.10;2.90;;;;;;;3.92;100.00;102544.75;6245913;23;20015;-90
2024/01/29 09:36:54;;;;;;;4.93;2.78;;;;;;;4.01;100.00;102547.66;6244238;22;20096;-79
2024/01/29 09:39:28;;;;;;;3.53;2.70;;;;;;;4.18;100.00;102568.88;6247579;23;20006;-81
2024/01/29 09:42:03;;;;;;;2.78;2.30;;;;;;;4.28;100.00;102558.97;6246805;23;20058;-81
2024/01/29 09:44:33;;;;;;;3.55;2.60;;;;;;;4.39;100.00;102567.09;6244283;23;20503;-81
2024/01/29 09:47:00;;;;;;;4.32;2.72;;;;;;;4.47;100.00;102566.56;6214714;23;20017;-81
2024/01/29 09:49:26;;;;;;;4.45;3.00;;;;;;;4.66;100.00;102566.38;6214776;23;20337;-81
2024/01/29 09:51:52;;;;;;;5.10;3.10;;;;;;;4.81;100.00;102572.06;6215913;23;20038;-81
2024/01/29 09:54:17;;;;;;;4.95;2.70;;;;;;;4.91;100.00;102560.44;6217636;23;20019;-81
2024/01/29 09:56:43;;;;;;;4.00;2.70;;;;;;;5.03;100.00;102562.56;6218901;23;20036;-81
2024/01/29 09:59:09;;;;;;;3.43;2.50;;;;;;;5.18;100.00;102564.81;6220567;23;20049;-81
2024/01/29 10:01:36;;;;;;;3.15;2.45;;;;;;;5.31;100.00;102573.81;6226320;23;20000;-80
2024/01/29 10:04:02;;;;;;;4.22;2.75;;;;;;;5.41;100.00;102563.88;6219918;23;20017;-81
2024/01/29 10:06:27;;;;;;;2.80;2.40;;;;;;;5.53;100.00;102581.47;6210115;23;20020;-81
2024/01/29 10:08:53;;;;;;;3.77;2.60;;;;;;;5.62;100.00;102570.59;6212721;23;20366;-81
2024/01/29 10:11:18;;;;;;;3.80;2.58;;;;;;;5.72;100.00;102575.22;6211644;23;20481;-80
2024/01/29 10:13:47;;;;;;;3.60;2.53;;;;;;;5.80;100.00;102579.72;6211386;23;20032;-80
2024/01/29 10:16:12;;;;;;;6.88;3.40;;;;;;;5.91;100.00;102580.09;6212049;23;20004;-80
2024/01/29 10:18:38;;;;;;;6.07;3.37;;;;;;;6.06;100.00;102590.91;6212087;23;20004;-78
2024/01/29 10:21:05;;;;;;;5.93;3.47;;;;;;;6.17;100.00;102581.81;6211106;23;20008;-79
2024/01/29 10:23:43;;;;;;;5.65;3.80;;;;;;;6.33;100.00;102588.31;6211653;23;20013;-79
2024/01/29 10:26:14;;;;;;;5.82;3.25;;;;;;;6.42;100.00;102581.66;6214895;23;20008;-93
2024/01/29 10:29:02;;;;;;;6.53;3.60;;;;;;;6.51;100.00;102576.81;6214672;23;20008;-93
2024/01/29 10:31:28;;;;;;;6.43;3.63;;;;;;;6.73;100.00;102595.50;6215623;23;20005;-92
2024/01/29 10:34:14;;;;;;;6.80;3.90;;;;;;;6.86;100.00;102589.84;6214688;23;20015;-92
2024/01/29 10:36:40;;;;;;;8.40;4.50;;;;;;;6.90;100.00;102580.47;6216393;23;20017;-92
2024/01/29 10:39:08;;;;;;;9.23;4.77;;;;;;;7.08;100.00;102601.63;6218045;23;20028;-93
2024/01/29 10:41:51;;;;;;;8.25;4.35;;;;;;;7.16;100.00;102585.47;6217172;23;20236;-93
2024/01/29 10:44:20;;;;;;;6.65;3.97;;;;;;;7.20;100.00;102580.47;6216647;23;20032;-93
2024/01/29 10:47:09;;;;;;;6.50;3.70;;;;;;;7.31;100.00;102572.13;6216580;23;20070;-89
2024/01/29 10:49:54;;;;;;;6.47;4.07;;;;;;;7.40;100.00;102580.09;6218030;23;20000;-93
2024/01/29 10:52:21;;;;;;;8.18;4.18;;;;;;;7.49;100.00;102580.31;6217436;23;20059;-93
2024/01/29 10:55:10;;;;;;;9.80;4.82;;;;;;;7.57;99.36;102577.94;6216119;23;20000;-90
2024/01/29 10:57:46;;;;;;;;;;;;;;;;;;;;;
2024/01/29 11:00:21;;;;;;;8.30;4.82;;;;;;;7.75;99.35;102586.97;6208904;23;20087;-90
2024/01/29 11:02:48;;;;;;;8.88;4.70;;;;;;;7.81;99.03;102589.72;6216023;23;20040;-89
2024/01/29 11:05:58;;;;;;;10.35;5.18;;;;;;;7.93;100.00;102600.38;6217779;23;20005;-91
2024/01/29 11:08:27;;;;;;;9.48;4.75;;;;;;;8.01;99.15;102595.34;6217158;23;20043;-91
2024/01/29 11:10:53;;;;;;;10.38;4.78;;;;;;;8.04;98.09;102595.44;6216962;23;20012;-91
2024/01/29 11:13:41;;;;;;;9.32;4.95;;;;;;;8.14;98.50;102597.38;6216828;23;20005;-91
2024/01/29 11:16:07;;;;;;;10.07;5.00;;;;;;;8.12;97.86;102590.44;6216480;23;20004;-91
2024/01/29 11:18:54;;;;;;;9.23;5.00;;;;;;;8.26;98.76;102590.75;6216049;23;20000;-87
2024/01/29 11:21:23;;;;;;;7.45;4.30;;;;;;;8.35;98.17;102593.53;6215430;23;20096;-91
2024/01/29 11:24:13;;;;;;;9.20;5.00;;;;;;;8.43;98.58;102594.59;6216026;23;20020;-91
2024/01/29 11:26:39;;;;;;;9.18;4.93;;;;;;;8.52;98.39;102593.06;6216863;23;20021;-90
2024/01/29 11:29:23;;;;;;;6.37;4.10;;;;;;;8.46;97.37;102573.09;6217153;23;20429;-91
2024/01/29 11:31:51;;;;;;;8.85;4.70;;;;;;;8.54;97.41;102570.69;6216644;23;20001;-90
2024/01/29 11:34:40;;;;;;;7.80;4.18;;;;;;;8.59;97.91;102572.53;6216690;23;20100;-91
2024/01/29 11:37:07;;;;;;;6.97;4.00;;;;;;;8.70;97.87;102562.38;6214886;23;20523;-90
2024/01/29 11:39:53;;;;;;;;;;;;;;;8.86;97.52;102578.25;6216854;23;20080;-91
2024/01/29 11:42:19;;;;;;;6.93;3.65;;;;;;;8.85;97.50;102560.97;6216703;23;19977;-90
2024/01/29 11:45:07;;;;;;;5.33;3.67;;;;;;;9.01;96.79;102575.06;6216295;23;20367;-89
2024/01/29 11:47:32;;;;;;;9.02;4.68;;;;;;;9.02;95.78;102564.72;6215266;23;20011;-86
2024/01/29 11:49:57;;;;;;;8.00;4.60;;;;;;;9.07;96.31;102570.00;6215584;23;20343;-90
2024/01/29 11:52:45;;;;;;;6.50;3.93;;;;;;;9.12;97.56;102568.38;6216089;23;20001;-89
2024/01/29 11:55:11;;;;;;;6.85;3.88;;;;;;;9.12;97.07;102564.06;6216814;23;20043;-90
2024/01/29 11:57:53;;;;;;;7.87;4.33;;;;;;;9.13;97.24;102546.81;6217955;23;20000;-89
2024/01/29 12:00:19;;;;;;;7.07;4.13;;;;;;;9.27;97.63;102558.31;6216942;23;20031;-90
2024/01/29 12:03:04;;;;;;;6.70;3.78;;;;;;;9.33;97.45;102561.81;6215202;23;20010;-85
2024/01/29 12:05:30;;;;;;;5.70;3.58;;;;;;;9.34;97.13;102550.63;6213128;23;20183;-86
2024/01/29 12:07:55;;;;;;;7.30;4.37;;;;;;;9.30;97.40;102546.22;6214532;23;20450;-85
2024/01/29 12:10:20;;;;;;;7.00;4.00;;;;;;;9.40;97.58;102559.38;6214260;23;20005;-84